Time;durP1;ratioP1;P1;durP2;ratioP2;P2;SDS_P1;SDS_P2;PMS_P1;PMS_P2;Temp;Humidity;BMP_temperature;BMP_pressure;BME280_temperature;BME280_humidity;BME280_pressure;Samples;Min_cycle;Max_cycle;Signal;HPM_P1;HPM_P2
2021/01/11 05:01:30;;;;;;;48.63;26.48;;;3.90;99.90;;;;;;5421989;23;20309;-70
2021/01/11 05:03:58;;;;;;;55.03;26.40;;;3.90;99.90;;;;;;4975104;28;20224;-70
2021/01/11 05:06:24;;;;;;;50.92;27.92;;;3.90;99.90;;;;;;4964304;28;20538;-70
2021/01/11 05:08:51;;;;;;;58.40;27.65;;;3.90;99.90;;;;;;4955467;28;20205;-70
2021/01/11 05:11:17;;;;;;;57.28;29.90;;;3.90;99.90;;;;;;4947471;28;20736;-71
2021/01/11 05:13:45;;;;;;;55.78;26.92;;;3.90;99.90;;;;;;4953547;28;20220;-71
2021/01/11 05:16:12;;;;;;;54.13;27.30;;;3.90;99.90;;;;;;4951303;28;20217;-71
2021/01/11 05:18:40;;;;;;;58.50;27.75;;;3.90;99.90;;;;;;4942546;28;20666;-71
2021/01/11 05:21:06;;;;;;;56.90;27.40;;;3.90;99.90;;;;;;4946681;28;20240;-71
2021/01/11 05:23:37;;;;;;;55.20;28.00;;;3.90;99.90;;;;;;4942857;28;20216;-69
2021/01/11 05:26:14;;;;;;;50.85;25.92;;;3.90;99.90;;;;;;4949942;28;20213;-68
2021/01/11 05:28:41;;;;;;;52.67;27.15;;;3.90;99.90;;;;;;4954694;28;20271;-69
2021/01/11 05:31:07;;;;;;;58.75;29.73;;;3.90;99.90;;;;;;4946555;28;20225;-69
2021/01/11 05:33:33;;;;;;;57.45;26.95;;;3.90;99.90;;;;;;4937337;28;20272;-73
2021/01/11 05:36:06;;;;;;;53.03;26.90;;;3.90;99.90;;;;;;4941413;29;20205;-74
2021/01/11 05:38:34;;;;;;;56.53;26.75;;;3.90;99.90;;;;;;4955858;28;20209;-74
2021/01/11 05:41:12;;;;;;;50.53;25.55;;;3.90;99.90;;;;;;4948391;28;20230;-68
2021/01/11 05:43:38;;;;;;;46.65;25.98;;;3.90;99.90;;;;;;4953150;29;20264;-69
2021/01/11 05:46:21;;;;;;;46.67;24.95;;;3.90;99.90;;;;;;4945912;29;20253;-69
2021/01/11 05:48:57;;;;;;;41.90;24.70;;;3.90;99.90;;;;;;4954479;28;20217;-69
2021/01/11 05:51:25;;;;;;;49.78;26.45;;;3.90;99.90;;;;;;4952567;29;20221;-68
2021/01/11 05:53:51;;;;;;;49.47;24.55;;;3.90;99.90;;;;;;4952195;29;20587;-68
2021/01/11 05:56:17;;;;;;;46.75;23.75;;;3.90;99.90;;;;;;4950670;28;20212;-69
2021/01/11 05:59:03;;;;;;;48.10;25.38;;;3.80;99.90;;;;;;4954569;28;20209;-69
2021/01/11 06:01:30;;;;;;;45.28;24.40;;;3.80;99.90;;;;;;4946083;28;20234;-73
2021/01/11 06:03:56;;;;;;;51.70;24.38;;;3.80;99.90;;;;;;4955528;28;20260;-74
2021/01/11 06:06:23;;;;;;;54.88;25.08;;;3.80;99.90;;;;;;4946430;28;20569;-74
2021/01/11 06:08:51;;;;;;;47.63;25.23;;;3.80;99.90;;;;;;4945210;29;20217;-73
2021/01/11 06:11:21;;;;;;;45.95;25.38;;;3.80;99.90;;;;;;4950852;28;20293;-71
2021/01/11 06:13:49;;;;;;;48.10;25.85;;;3.80;99.90;;;;;;4938452;29;20217;-73
2021/01/11 06:16:17;;;;;;;58.65;29.17;;;3.80;99.90;;;;;;4938727;29;20232;-69
2021/01/11 06:18:45;;;;;;;57.47;28.05;;;3.80;99.90;;;;;;4953898;28;20213;-70
2021/01/11 06:21:11;;;;;;;48.85;26.45;;;3.80;99.90;;;;;;4949515;28;20304;-69
2021/01/11 06:23:38;;;;;;;49.30;25.73;;;3.80;99.90;;;;;;4934750;29;20214;-70
2021/01/11 06:26:29;;;;;;;60.25;28.88;;;3.80;99.90;;;;;;4948734;28;20212;-69
2021/01/11 06:28:56;;;;;;;55.92;27.70;;;3.80;99.90;;;;;;4944930;28;20210;-74
2021/01/11 06:31:27;;;;;;;50.45;26.85;;;3.80;99.90;;;;;;4951756;28;20224;-74
2021/01/11 06:33:54;;;;;;;57.30;27.15;;;3.80;99.90;;;;;;4957044;28;20221;-74
2021/01/11 06:36:25;;;;;;;54.72;28.63;;;3.80;99.90;;;;;;4951703;28;20217;-73
2021/01/11 06:38:53;;;;;;;53.38;27.58;;;3.80;99.90;;;;;;4953990;28;20683;-73
2021/01/11 06:41:21;;;;;;;52.33;27.90;;;3.80;99.90;;;;;;4951844;28;20237;-74
2021/01/11 06:43:49;;;;;;;52.03;26.60;;;3.80;99.90;;;;;;4936830;29;20206;-74
2021/01/11 06:46:43;;;;;;;54.92;26.67;;;3.70;99.90;;;;;;4944600;28;20220;-73
2021/01/11 06:49:22;;;;;;;53.45;28.55;;;3.70;99.90;;;;;;4919397;28;20201;-71
2021/01/11 06:51:57;;;;;;;50.33;26.73;;;3.70;99.90;;;;;;4944789;28;20232;-71
2021/01/11 06:54:35;;;;;;;50.15;26.45;;;3.70;99.90;;;;;;4939637;29;20205;-71
2021/01/11 06:57:08;;;;;;;55.80;29.10;;;3.70;99.90;;;;;;4951427;28;20205;-71
2021/01/11 06:59:37;;;;;;;45.78;27.65;;;3.70;99.90;;;;;;4952813;28;20227;-70
2021/01/11 07:02:18;;;;;;;53.13;26.83;;;3.70;99.90;;;;;;4949245;28;20609;-70
2021/01/11 07:04:44;;;;;;;48.72;24.65;;;3.60;99.90;;;;;;4957993;28;20209;-71
2021/01/11 07:07:18;;;;;;;45.65;24.88;;;3.70;99.90;;;;;;4945638;28;20365;-71
2021/01/11 07:09:53;;;;;;;48.67;25.20;;;3.60;99.90;;;;;;4939758;29;20303;-71
2021/01/11 07:12:21;;;;;;;44.97;24.30;;;3.60;99.90;;;;;;4951079;28;20229;-70
2021/01/11 07:14:59;;;;;;;35.33;22.63;;;3.60;99.90;;;;;;4953152;28;20263;-69
2021/01/11 07:17:40;;;;;;;38.05;22.20;;;3.60;99.90;;;;;;4949063;29;20220;-70
2021/01/11 07:20:09;;;;;;;35.50;22.92;;;3.50;99.90;;;;;;4953789;28;20220;-70
2021/01/11 07:22:37;;;;;;;41.78;23.42;;;3.50;99.90;;;;;;4953171;28;20209;-70
2021/01/11 07:25:11;;;;;;;39.10;20.95;;;3.50;99.90;;;;;;4951829;28;20213;-69
2021/01/11 07:27:38;;;;;;;42.78;21.20;;;3.50;99.90;;;;;;4945012;28;20210;-70
2021/01/11 07:30:06;;;;;;;38.72;20.15;;;3.50;99.90;;;;;;4948146;29;20216;-71
2021/01/11 07:32:32;;;;;;;39.03;21.50;;;3.40;99.90;;;;;;4950954;28;20221;-70
2021/01/11 07:35:00;;;;;;;40.35;21.88;;;3.40;99.90;;;;;;4947781;28;20667;-69
2021/01/11 07:37:26;;;;;;;36.25;23.58;;;3.40;99.90;;;;;;4946328;28;20291;-70
2021/01/11 07:39:52;;;;;;;33.55;20.70;;;3.40;99.90;;;;;;4944313;28;20221;-69
2021/01/11 07:42:20;;;;;;;37.38;20.30;;;3.40;99.90;;;;;;4943284;28;20304;-69
2021/01/11 07:44:47;;;;;;;30.60;18.90;;;3.30;99.90;;;;;;4955842;28;20299;-69
2021/01/11 07:47:17;;;;;;;39.33;24.67;;;3.30;99.90;;;;;;4955926;28;20217;-70
2021/01/11 07:49:44;;;;;;;31.27;21.10;;;3.30;99.90;;;;;;4954408;28;20201;-69
2021/01/11 07:52:12;;;;;;;32.67;19.92;;;3.30;99.90;;;;;;4957306;28;20221;-69
2021/01/11 07:54:39;;;;;;;32.20;19.38;;;3.30;99.90;;;;;;4953073;28;20741;-70
2021/01/11 07:57:09;;;;;;;37.53;19.80;;;3.30;99.90;;;;;;4957883;28;20677;-70
2021/01/11 07:59:35;;;;;;;35.55;20.00;;;3.20;99.90;;;;;;4950283;28;20216;-69
2021/01/11 08:02:05;;;;;;;24.42;16.23;;;3.20;99.90;;;;;;4950342;29;20244;-69
2021/01/11 08:04:36;;;;;;;31.70;18.10;;;3.20;99.90;;;;;;4945492;29;20209;-69
2021/01/11 08:07:06;;;;;;;30.48;17.05;;;3.20;99.90;;;;;;4951254;28;20293;-69
2021/01/11 08:09:34;;;;;;;27.67;19.48;;;3.20;99.90;;;;;;4957396;29;20213;-69
2021/01/11 08:12:07;;;;;;;35.55;20.83;;;3.20;99.90;;;;;;4962751;28;20242;-69
2021/01/11 08:14:34;;;;;;;32.58;19.00;;;3.20;99.90;;;;;;4958068;29;20259;-69
2021/01/11 08:17:01;;;;;;;29.00;17.92;;;3.20;99.90;;;;;;4955625;28;20229;-69
2021/01/11 08:19:27;;;;;;;26.40;17.45;;;3.20;99.90;;;;;;4955748;28;20213;-69
2021/01/11 08:21:58;;;;;;;27.13;17.58;;;3.10;99.90;;;;;;4946064;28;20256;-69
2021/01/11 08:24:24;;;;;;;30.83;19.30;;;3.10;99.90;;;;;;4944117;29;20264;-68
2021/01/11 08:26:57;;;;;;;27.55;18.15;;;3.10;99.90;;;;;;4948604;28;20210;-68
2021/01/11 08:29:23;;;;;;;31.98;19.10;;;3.10;99.90;;;;;;4951743;28;20225;-68
2021/01/11 08:31:50;;;;;;;29.60;17.33;;;3.20;99.90;;;;;;4937180;29;20226;-68
2021/01/11 08:34:17;;;;;;;31.10;18.08;;;3.10;99.90;;;;;;4943576;29;20699;-68
2021/01/11 08:36:43;;;;;;;34.58;19.42;;;3.10;99.90;;;;;;4942933;29;20210;-68
2021/01/11 08:39:15;;;;;;;27.45;17.25;;;3.10;99.90;;;;;;4949947;29;20498;-68
2021/01/11 08:41:43;;;;;;;29.48;18.58;;;3.10;99.90;;;;;;4944801;28;20230;-67
2021/01/11 08:44:40;;;;;;;28.33;16.95;;;3.10;99.90;;;;;;4949544;29;20202;-66
2021/01/11 08:47:08;;;;;;;35.40;19.63;;;3.00;99.90;;;;;;4890740;29;20313;-66
2021/01/11 08:49:54;;;;;;;28.90;19.08;;;3.00;99.90;;;;;;4924850;29;20217;-67
2021/01/11 08:52:27;;;;;;;30.25;17.40;;;3.00;99.90;;;;;;4947198;29;20277;-67
2021/01/11 08:54:53;;;;;;;36.72;21.70;;;3.10;99.90;;;;;;4948853;28;20213;-67
2021/01/11 08:57:19;;;;;;;31.02;20.17;;;3.00;99.90;;;;;;4948778;28;20235;-67
2021/01/11 08:59:50;;;;;;;31.55;21.08;;;3.00;99.90;;;;;;4951278;28;20206;-67
2021/01/11 09:02:23;;;;;;;32.47;20.10;;;3.00;99.90;;;;;;4949526;29;20232;-67
2021/01/11 09:04:50;;;;;;;37.15;21.08;;;3.00;99.90;;;;;;4956011;28;20636;-68
2021/01/11 09:07:26;;;;;;;32.92;19.35;;;3.00;99.90;;;;;;4944118;28;20596;-66
2021/01/11 09:09:52;;;;;;;33.53;18.27;;;3.00;99.90;;;;;;4937223;29;20515;-67
2021/01/11 09:12:28;;;;;;;37.83;23.33;;;3.00;99.90;;;;;;4950746;29;20229;-67
2021/01/11 09:14:55;;;;;;;28.77;18.63;;;3.00;99.90;;;;;;4950810;28;20248;-67
2021/01/11 09:17:26;;;;;;;33.33;18.13;;;3.10;99.90;;;;;;4938338;29;20201;-67
2021/01/11 09:19:53;;;;;;;32.97;19.02;;;3.10;99.90;;;;;;4937676;29;20305;-66
2021/01/11 09:22:34;;;;;;;28.55;18.75;;;3.00;99.90;;;;;;4941686;29;20252;-67
2021/01/11 09:25:01;;;;;;;32.50;20.08;;;3.00;99.90;;;;;;4950270;29;20202;-67
2021/01/11 09:27:28;;;;;;;43.22;24.27;;;3.00;99.90;;;;;;4965887;29;20201;-66
2021/01/11 09:29:54;;;;;;;34.78;20.17;;;3.00;99.90;;;;;;4968959;28;20201;-67
2021/01/11 09:32:20;;;;;;;32.38;20.08;;;3.00;99.90;;;;;;4949306;29;20233;-68
2021/01/11 09:34:47;;;;;;;30.85;19.52;;;3.00;99.90;;;;;;4939565;29;20210;-68
2021/01/11 09:37:14;;;;;;;40.60;23.25;;;3.00;99.90;;;;;;4937536;29;20218;-68
2021/01/11 09:39:41;;;;;;;34.35;21.02;;;3.00;99.90;;;;;;4954264;28;20355;-68
2021/01/11 09:42:07;;;;;;;38.25;20.55;;;3.00;99.90;;;;;;4936739;29;20237;-68
2021/01/11 09:44:34;;;;;;;39.42;23.25;;;3.00;99.90;;;;;;4948278;29;20571;-68
2021/01/11 09:47:05;;;;;;;40.85;23.77;;;3.10;99.90;;;;;;4938480;29;20597;-69
2021/01/11 09:49:31;;;;;;;40.72;22.45;;;3.00;99.90;;;;;;4937602;28;20269;-69
2021/01/11 09:51:57;;;;;;;44.58;23.52;;;3.10;99.90;;;;;;4942151;29;20218;-68
2021/01/11 09:54:24;;;;;;;46.78;23.98;;;3.10;99.90;;;;;;4936377;29;20213;-68
2021/01/11 09:56:51;;;;;;;42.72;24.92;;;3.10;99.90;;;;;;4938027;29;20565;-69
2021/01/11 09:59:17;;;;;;;43.90;24.33;;;3.10;99.90;;;;;;4955000;28;20567;-68
2021/01/11 10:01:45;;;;;;;47.60;25.58;;;3.10;99.90;;;;;;4940353;28;20308;-68
2021/01/11 10:04:12;;;;;;;44.78;25.20;;;3.10;99.90;;;;;;4936492;29;20202;-68
2021/01/11 10:06:42;;;;;;;40.75;23.27;;;3.10;99.90;;;;;;4936086;29;20214;-68
2021/01/11 10:09:08;;;;;;;44.10;24.77;;;3.10;99.90;;;;;;4950240;29;20580;-68
2021/01/11 10:11:36;;;;;;;46.55;23.83;;;3.10;99.90;;;;;;4952741;28;20221;-68
2021/01/11 10:14:02;;;;;;;46.78;25.75;;;3.20;99.90;;;;;;4946221;28;20201;-68
2021/01/11 10:16:28;;;;;;;48.90;26.00;;;3.20;99.90;;;;;;4935558;29;20209;-68
2021/01/11 10:18:54;;;;;;;60.60;32.53;;;3.20;99.90;;;;;;4947604;29;20221;-68
2021/01/11 10:21:21;;;;;;;49.15;26.25;;;3.20;99.90;;;;;;4938102;29;20632;-68
2021/01/11 10:23:47;;;;;;;62.05;31.20;;;3.20;99.90;;;;;;4952742;28;20206;-68
2021/01/11 10:26:17;;;;;;;50.75;26.20;;;3.20;99.90;;;;;;4954529;29;20220;-67
2021/01/11 10:28:45;;;;;;;55.95;29.83;;;3.20;99.90;;;;;;4940038;28;20253;-68
2021/01/11 10:31:11;;;;;;;61.75;32.85;;;3.20;99.90;;;;;;4935371;28;20241;-69
2021/01/11 10:33:37;;;;;;;54.10;25.83;;;3.20;99.90;;;;;;4952841;28;20248;-68
2021/01/11 10:36:04;;;;;;;51.13;25.10;;;3.30;99.90;;;;;;4954321;28;20264;-68
2021/01/11 10:38:30;;;;;;;51.60;25.25;;;3.30;99.90;;;;;;4940924;28;20221;-68
2021/01/11 10:40:57;;;;;;;57.35;26.42;;;3.30;99.90;;;;;;4951157;28;20282;-67
2021/01/11 10:43:23;;;;;;;54.63;28.17;;;3.30;99.90;;;;;;4942172;28;20210;-67
2021/01/11 10:45:50;;;;;;;52.13;26.52;;;3.30;99.90;;;;;;4935468;29;20216;-70
2021/01/11 10:48:16;;;;;;;55.92;28.80;;;3.30;99.90;;;;;;4945278;29;20260;-70
2021/01/11 10:50:42;;;;;;;50.50;25.35;;;3.30;99.90;;;;;;4952851;28;20217;-70
2021/01/11 10:53:08;;;;;;;56.13;26.90;;;3.30;99.90;;;;;;4935876;28;20208;-70
2021/01/11 10:55:34;;;;;;;56.30;27.70;;;3.30;99.90;;;;;;4936156;28;20202;-70
2021/01/11 10:58:00;;;;;;;54.50;27.00;;;3.30;99.90;;;;;;4942611;29;20277;-70
2021/01/11 11:00:27;;;;;;;51.47;26.70;;;3.30;99.90;;;;;;4952341;28;20225;-70
2021/01/11 11:02:54;;;;;;;47.15;23.40;;;3.30;99.90;;;;;;4952136;28;20205;-70
2021/01/11 11:05:20;;;;;;;59.30;26.88;;;3.30;99.90;;;;;;4954314;28;20201;-70
2021/01/11 11:07:46;;;;;;;48.83;26.58;;;3.30;99.90;;;;;;4952834;28;20209;-70
2021/01/11 11:10:13;;;;;;;49.65;26.75;;;3.30;99.90;;;;;;4941595;28;20206;-70
2021/01/11 11:12:42;;;;;;;45.42;24.80;;;3.30;99.90;;;;;;4934447;29;20873;-70
2021/01/11 11:15:09;;;;;;;50.85;26.77;;;3.40;99.90;;;;;;4945072;29;20512;-71
2021/01/11 11:17:35;;;;;;;47.95;26.17;;;3.40;99.90;;;;;;4944935;28;20206;-70
2021/01/11 11:20:03;;;;;;;54.53;27.90;;;3.40;99.90;;;;;;4941876;29;20658;-70
2021/01/11 11:22:29;;;;;;;50.17;27.05;;;3.40;99.90;;;;;;4941456;28;20281;-70
2021/01/11 11:24:55;;;;;;;53.83;26.63;;;3.40;99.90;;;;;;4943889;28;20198;-70
2021/01/11 11:27:21;;;;;;;53.42;27.80;;;3.40;99.90;;;;;;4936035;29;20202;-70
2021/01/11 11:29:48;;;;;;;42.63;23.52;;;3.40;99.90;;;;;;4935129;29;20209;-70
2021/01/11 11:32:16;;;;;;;44.15;26.67;;;3.40;99.90;;;;;;4948323;28;20309;-71
2021/01/11 11:34:42;;;;;;;48.85;25.85;;;3.40;99.90;;;;;;4950484;28;20224;-70
2021/01/11 11:37:09;;;;;;;44.72;24.42;;;3.40;99.90;;;;;;4943522;29;20206;-70
2021/01/11 11:39:35;;;;;;;47.67;25.77;;;3.40;99.90;;;;;;4934958;29;20273;-71
2021/01/11 11:42:02;;;;;;;47.63;25.20;;;3.40;99.90;;;;;;4934205;29;20254;-70
2021/01/11 11:44:28;;;;;;;39.45;20.30;;;3.50;99.90;;;;;;4935416;29;20206;-70
2021/01/11 11:46:54;;;;;;;55.38;26.80;;;3.50;99.90;;;;;;4935326;29;20670;-70
2021/01/11 11:49:21;;;;;;;54.28;26.23;;;3.40;99.90;;;;;;4936427;28;20206;-70
2021/01/11 11:51:47;;;;;;;47.28;24.55;;;3.50;99.90;;;;;;4943158;29;20232;-70
2021/01/11 11:54:15;;;;;;;44.88;21.80;;;3.50;99.90;;;;;;4966347;28;20231;-70
2021/01/11 11:56:41;;;;;;;53.75;25.52;;;3.50;99.90;;;;;;4947936;28;20217;-69
2021/01/11 11:59:07;;;;;;;45.63;24.10;;;3.50;99.90;;;;;;4948673;28;20261;-68
2021/01/11 12:01:38;;;;;;;52.85;23.58;;;3.50;99.90;;;;;;4944559;29;20650;-69
2021/01/11 12:04:04;;;;;;;51.30;27.20;;;3.50;99.90;;;;;;4952341;28;20210;-69
2021/01/11 12:06:41;;;;;;;50.40;25.73;;;3.50;99.90;;;;;;4956394;28;20584;-68
2021/01/11 12:09:07;;;;;;;55.40;24.48;;;3.50;99.90;;;;;;4951875;28;20212;-69
2021/01/11 12:11:42;;;;;;;47.20;25.50;;;3.50;99.90;;;;;;4939091;29;20217;-68
2021/01/11 12:14:08;;;;;;;43.30;24.33;;;3.50;99.90;;;;;;4935196;28;20647;-69
2021/01/11 12:16:34;;;;;;;40.58;25.25;;;3.50;99.90;;;;;;4951763;28;20252;-68
2021/01/11 12:19:01;;;;;;;40.55;23.33;;;3.50;99.90;;;;;;4941278;28;20254;-69
2021/01/11 12:21:28;;;;;;;53.40;29.25;;;3.50;99.90;;;;;;4934558;28;20225;-68
2021/01/11 12:23:54;;;;;;;45.95;24.08;;;3.50;99.90;;;;;;4933364;29;20574;-69
2021/01/11 12:26:21;;;;;;;48.72;25.42;;;3.50;99.90;;;;;;4952185;29;20253;-68
2021/01/11 12:28:47;;;;;;;37.15;16.90;;;3.50;99.90;;;;;;4954932;28;20201;-69
2021/01/11 12:31:14;;;;;;;45.35;23.80;;;3.50;99.90;;;;;;4950063;29;20226;-69
2021/01/11 12:33:40;;;;;;;43.70;22.63;;;3.40;99.90;;;;;;4944384;29;20213;-72
2021/01/11 12:36:06;;;;;;;35.92;21.55;;;3.40;99.90;;;;;;4943194;29;20209;-72
2021/01/11 12:38:32;;;;;;;42.35;22.33;;;3.50;99.90;;;;;;4950399;28;20220;-71
2021/01/11 12:40:58;;;;;;;36.75;21.77;;;3.50;99.90;;;;;;4956077;28;20230;-71
2021/01/11 12:43:24;;;;;;;40.25;21.35;;;3.50;99.90;;;;;;4944797;29;20201;-70
2021/01/11 12:45:51;;;;;;;46.67;23.40;;;3.50;99.90;;;;;;4954838;28;20214;-69
2021/01/11 12:48:17;;;;;;;37.63;20.38;;;3.50;99.90;;;;;;4945164;29;20680;-70
2021/01/11 12:50:44;;;;;;;36.72;20.95;;;3.50;99.90;;;;;;4941372;29;20222;-69
2021/01/11 12:53:10;;;;;;;38.55;20.65;;;3.50;99.90;;;;;;4941863;29;20225;-70
2021/01/11 12:55:36;;;;;;;36.58;21.05;;;3.60;99.90;;;;;;4944777;29;20213;-70
2021/01/11 12:58:02;;;;;;;35.75;21.85;;;3.60;99.90;;;;;;4955407;28;20217;-69
2021/01/11 13:00:28;;;;;;;37.22;20.67;;;3.50;99.90;;;;;;4947276;29;20460;-70
2021/01/11 13:02:55;;;;;;;36.08;20.33;;;3.50;99.90;;;;;;4943341;29;20993;-70
2021/01/11 13:05:21;;;;;;;36.50;20.30;;;3.50;99.90;;;;;;4952815;28;20201;-71
2021/01/11 13:07:47;;;;;;;28.52;17.65;;;3.60;99.90;;;;;;4964285;28;20194;-70
2021/01/11 13:10:14;;;;;;;31.48;18.35;;;3.60;99.90;;;;;;4958776;28;20209;-69
2021/01/11 13:12:40;;;;;;;30.52;17.45;;;3.60;99.90;;;;;;4959162;28;20241;-70
2021/01/11 13:15:08;;;;;;;33.53;19.27;;;3.60;99.90;;;;;;4948916;28;20662;-69
2021/01/11 13:17:39;;;;;;;33.13;20.15;;;3.60;99.90;;;;;;4936739;29;20267;-70
2021/01/11 13:20:07;;;;;;;31.95;18.58;;;3.60;99.90;;;;;;4943419;29;20212;-69
2021/01/11 13:22:33;;;;;;;28.88;19.25;;;3.60;99.90;;;;;;4955220;29;20653;-69
2021/01/11 13:24:59;;;;;;;29.63;17.90;;;3.50;99.90;;;;;;4955423;28;20511;-67
2021/01/11 13:27:26;;;;;;;28.70;17.05;;;3.60;99.90;;;;;;4956272;28;20224;-69
2021/01/11 13:29:52;;;;;;;29.63;18.00;;;3.60;99.90;;;;;;4951606;28;20209;-69
2021/01/11 13:32:18;;;;;;;27.75;17.38;;;3.60;99.90;;;;;;4937303;29;20217;-69
2021/01/11 13:34:46;;;;;;;32.58;19.75;;;3.60;99.90;;;;;;4954335;28;20690;-69
2021/01/11 13:37:13;;;;;;;32.85;18.67;;;3.60;99.90;;;;;;4943295;28;20553;-67
2021/01/11 13:39:39;;;;;;;25.77;15.70;;;3.60;99.90;;;;;;4936253;29;20206;-67
2021/01/11 13:42:11;;;;;;;35.35;18.88;;;3.70;99.90;;;;;;4948591;28;20677;-67
2021/01/11 13:44:37;;;;;;;33.30;18.77;;;3.60;99.90;;;;;;4943773;28;20202;-67
2021/01/11 13:47:04;;;;;;;25.63;16.42;;;3.60;99.90;;;;;;4949175;29;20208;-67
2021/01/11 13:49:31;;;;;;;29.58;17.52;;;3.60;99.90;;;;;;4955246;28;20245;-70
2021/01/11 13:51:59;;;;;;;25.42;16.58;;;3.60;99.90;;;;;;4954217;28;20229;-72
2021/01/11 13:54:26;;;;;;;33.47;18.75;;;3.60;99.90;;;;;;4953520;28;20279;-71
2021/01/11 13:56:52;;;;;;;29.90;17.08;;;3.60;99.90;;;;;;4953042;28;20213;-71
2021/01/11 13:59:19;;;;;;;30.77;17.08;;;3.60;99.90;;;;;;4946182;28;20205;-71
2021/01/11 14:01:46;;;;;;;28.90;17.88;;;3.60;99.90;;;;;;4935132;29;20240;-70
2021/01/11 14:04:13;;;;;;;42.08;25.52;;;3.60;99.90;;;;;;4950394;29;20213;-70
2021/01/11 14:06:39;;;;;;;32.53;18.70;;;3.60;99.90;;;;;;4955037;28;20673;-68
2021/01/11 14:09:06;;;;;;;29.70;16.67;;;3.60;99.90;;;;;;4936029;28;20205;-68
2021/01/11 14:11:34;;;;;;;34.13;21.58;;;3.60;99.90;;;;;;4935559;29;20222;-69
2021/01/11 14:14:00;;;;;;;28.70;18.25;;;3.60;99.90;;;;;;4937844;29;20563;-67
2021/01/11 14:16:27;;;;;;;28.05;17.58;;;3.60;99.90;;;;;;4954557;28;20228;-68
2021/01/11 14:18:54;;;;;;;25.85;17.15;;;3.60;99.90;;;;;;4939097;28;20525;-67
2021/01/11 14:21:21;;;;;;;23.10;14.48;;;3.60;99.90;;;;;;4948890;28;20229;-68
2021/01/11 14:23:48;;;;;;;37.30;20.17;;;3.60;99.90;;;;;;4953673;28;20197;-69
2021/01/11 14:26:17;;;;;;;28.83;19.05;;;3.60;99.90;;;;;;4952513;28;20236;-67
2021/01/11 14:28:44;;;;;;;29.92;17.05;;;3.60;99.90;;;;;;4936198;28;20581;-68
2021/01/11 14:31:10;;;;;;;27.27;16.65;;;3.70;99.90;;;;;;4941528;29;20221;-69
2021/01/11 14:33:37;;;;;;;28.65;17.73;;;3.60;99.90;;;;;;4954030;28;20586;-68
2021/01/11 14:36:03;;;;;;;31.27;19.38;;;3.60;99.90;;;;;;4947950;28;20202;-67
2021/01/11 14:38:30;;;;;;;29.27;17.50;;;3.60;99.90;;;;;;4935530;29;20588;-67
2021/01/11 14:40:56;;;;;;;32.38;17.85;;;3.70;99.90;;;;;;4946421;29;20258;-67
2021/01/11 14:43:22;;;;;;;33.30;17.90;;;3.70;99.90;;;;;;4949206;28;20206;-68
2021/01/11 14:45:49;;;;;;;31.33;18.23;;;3.60;99.90;;;;;;4964884;28;20198;-68
2021/01/11 14:48:15;;;;;;;26.80;15.35;;;3.60;99.90;;;;;;4966239;29;20205;-67
2021/01/11 14:50:44;;;;;;;23.90;16.25;;;3.60;99.90;;;;;;4962634;28;20228;-67
2021/01/11 14:53:14;;;;;;;27.60;15.75;;;3.60;99.90;;;;;;4962656;29;20733;-67
2021/01/11 14:55:40;;;;;;;27.85;16.95;;;3.60;99.90;;;;;;4963938;29;20240;-67
2021/01/11 14:58:06;;;;;;;21.42;13.10;;;3.60;99.90;;;;;;4964490;29;20271;-68
2021/01/11 15:00:32;;;;;;;29.30;17.58;;;3.60;99.90;;;;;;4960294;28;20236;-69
2021/01/11 15:02:59;;;;;;;21.80;14.18;;;3.50;99.90;;;;;;4954822;28;20669;-67
2021/01/11 15:05:25;;;;;;;23.48;13.98;;;3.60;99.90;;;;;;4954187;28;20216;-66
2021/01/11 15:07:51;;;;;;;22.13;16.17;;;3.60;99.90;;;;;;4953004;28;20240;-67
2021/01/11 15:10:17;;;;;;;30.83;16.67;;;3.50;99.90;;;;;;4954726;28;20217;-68
2021/01/11 15:12:44;;;;;;;29.02;16.55;;;3.60;99.90;;;;;;4937806;28;20677;-67
2021/01/11 15:15:11;;;;;;;27.33;16.88;;;3.50;99.90;;;;;;4950053;29;20220;-67
2021/01/11 15:17:40;;;;;;;25.33;15.68;;;3.50;99.90;;;;;;4945733;28;20586;-67
2021/01/11 15:20:09;;;;;;;21.95;15.18;;;3.60;99.90;;;;;;4954082;28;20239;-68
2021/01/11 15:22:36;;;;;;;20.60;14.25;;;3.60;99.90;;;;;;4939572;28;20384;-67
2021/01/11 15:25:02;;;;;;;30.40;16.73;;;3.60;99.90;;;;;;4934945;29;20206;-68
2021/01/11 15:27:29;;;;;;;27.55;16.70;;;3.60;99.90;;;;;;4935777;29;20232;-68
2021/01/11 15:29:55;;;;;;;25.70;16.55;;;3.60;99.90;;;;;;4934703;29;20206;-68
2021/01/11 15:32:21;;;;;;;24.58;15.65;;;3.60;99.90;;;;;;4948716;29;20230;-68
2021/01/11 15:34:48;;;;;;;25.13;16.00;;;3.60;99.90;;;;;;4953111;28;20580;-68
2021/01/11 15:37:15;;;;;;;26.88;16.83;;;3.60;99.90;;;;;;4947100;28;20220;-68
2021/01/11 15:39:41;;;;;;;20.30;15.73;;;3.60;99.90;;;;;;4937159;29;20205;-69
2021/01/11 15:42:07;;;;;;;19.50;13.75;;;3.60;99.90;;;;;;4935374;29;20273;-70
2021/01/11 15:44:34;;;;;;;22.77;15.45;;;3.70;99.90;;;;;;4940187;29;20221;-69
2021/01/11 15:47:00;;;;;;;23.40;15.32;;;3.70;99.90;;;;;;4944443;29;20293;-68
2021/01/11 15:49:26;;;;;;;21.92;15.38;;;3.70;99.90;;;;;;4953761;28;20212;-68
2021/01/11 15:51:52;;;;;;;29.58;15.60;;;3.70;99.90;;;;;;4943909;28;20229;-68
2021/01/11 15:54:20;;;;;;;20.85;14.60;;;3.70;99.90;;;;;;4934104;29;20214;-69
2021/01/11 15:56:48;;;;;;;18.67;14.02;;;3.70;99.90;;;;;;4935352;29;20216;-69
2021/01/11 15:59:17;;;;;;;18.60;14.13;;;3.70;99.90;;;;;;4937978;29;20301;-68
2021/01/11 16:01:43;;;;;;;22.52;15.25;;;3.70;99.90;;;;;;4947062;29;20249;-69
2021/01/11 16:04:10;;;;;;;21.92;15.30;;;3.70;99.90;;;;;;4956598;28;20201;-68
2021/01/11 16:06:42;;;;;;;22.65;16.45;;;3.80;99.90;;;;;;4938217;28;20222;-69
2021/01/11 16:09:08;;;;;;;29.35;16.95;;;3.80;99.90;;;;;;4952565;29;20269;-69
2021/01/11 16:11:35;;;;;;;26.27;15.80;;;3.80;99.90;;;;;;4956476;28;20225;-69
2021/01/11 16:14:01;;;;;;;23.70;16.52;;;3.90;99.90;;;;;;4942746;28;20256;-68
2021/01/11 16:16:27;;;;;;;24.60;15.75;;;3.80;99.90;;;;;;4947772;29;20580;-68
2021/01/11 16:18:56;;;;;;;25.58;16.52;;;3.80;99.90;;;;;;4947334;28;20699;-68
2021/01/11 16:21:22;;;;;;;27.83;17.90;;;3.80;99.90;;;;;;4945253;29;20693;-70
2021/01/11 16:23:49;;;;;;;28.52;17.95;;;3.80;99.90;;;;;;4938427;28;20910;-70
2021/01/11 16:26:19;;;;;;;22.65;15.23;;;3.80;99.90;;;;;;4942457;28;20223;-70
2021/01/11 16:28:46;;;;;;;22.15;15.52;;;3.80;99.90;;;;;;4953679;29;20213;-72
2021/01/11 16:31:24;;;;;;;24.70;15.15;;;3.80;99.90;;;;;;4948490;28;20236;-72
2021/01/11 16:33:51;;;;;;;25.92;17.42;;;3.80;99.90;;;;;;4951241;29;20613;-72
2021/01/11 16:36:17;;;;;;;27.10;18.10;;;3.80;99.90;;;;;;4950340;28;20223;-72
2021/01/11 16:38:43;;;;;;;20.13;15.02;;;3.80;99.90;;;;;;4952397;29;20205;-72
2021/01/11 16:41:09;;;;;;;20.35;14.73;;;3.80;99.90;;;;;;4948015;28;20778;-72
2021/01/11 16:43:35;;;;;;;26.98;19.80;;;3.80;99.90;;;;;;4953340;28;20246;-72
2021/01/11 16:46:02;;;;;;;23.33;17.67;;;3.90;99.90;;;;;;4937180;29;20206;-72
2021/01/11 16:48:28;;;;;;;23.10;16.73;;;3.80;99.90;;;;;;4940639;29;20265;-72
2021/01/11 16:50:55;;;;;;;23.00;14.93;;;3.90;99.90;;;;;;4946065;29;20385;-72
2021/01/11 16:53:21;;;;;;;28.70;16.90;;;3.90;99.90;;;;;;4955103;28;20217;-72
2021/01/11 16:55:47;;;;;;;28.27;18.52;;;3.90;99.90;;;;;;4945685;28;20210;-73
2021/01/11 16:58:13;;;;;;;26.55;16.75;;;3.90;99.90;;;;;;4936859;29;20569;-72
2021/01/11 17:00:39;;;;;;;23.33;15.80;;;3.90;99.90;;;;;;4946348;29;20237;-72
2021/01/11 17:03:06;;;;;;;22.77;14.98;;;3.90;99.90;;;;;;4954437;28;20217;-73
2021/01/11 17:05:32;;;;;;;26.63;18.02;;;3.90;99.90;;;;;;4946460;28;20212;-73
2021/01/11 17:07:58;;;;;;;24.15;16.98;;;3.90;99.90;;;;;;4956620;28;20224;-73
2021/01/11 17:10:24;;;;;;;32.63;18.42;;;3.90;99.90;;;;;;4954152;28;20205;-71
2021/01/11 17:12:50;;;;;;;25.73;15.90;;;3.80;99.90;;;;;;4958012;28;20206;-71
2021/01/11 17:15:17;;;;;;;31.48;18.15;;;3.90;99.90;;;;;;4951546;28;20217;-72
2021/01/11 17:17:43;;;;;;;27.13;17.92;;;3.90;99.90;;;;;;4956687;28;20205;-71
2021/01/11 17:20:11;;;;;;;34.80;21.90;;;3.90;99.90;;;;;;4948497;28;20229;-72
2021/01/11 17:22:38;;;;;;;26.83;18.02;;;3.90;99.90;;;;;;4936934;29;20230;-70
2021/01/11 17:25:06;;;;;;;29.77;18.35;;;3.90;99.90;;;;;;4939964;29;20677;-70
2021/01/11 17:27:33;;;;;;;31.63;20.98;;;3.90;99.90;;;;;;4947008;28;20214;-72
2021/01/11 17:29:59;;;;;;;30.88;18.70;;;3.90;99.90;;;;;;4940759;29;20205;-73
2021/01/11 17:32:25;;;;;;;28.63;19.50;;;3.90;99.90;;;;;;4953120;28;20240;-73
2021/01/11 17:34:52;;;;;;;30.73;19.60;;;3.90;99.90;;;;;;4936604;29;20280;-73
2021/01/11 17:37:19;;;;;;;33.13;20.70;;;3.90;99.90;;;;;;4936034;29;20218;-72
2021/01/11 17:39:45;;;;;;;35.75;23.00;;;3.90;99.90;;;;;;4941974;28;20574;-71